LiveATC.Net - Listen to live air traffic control over the Internet!


ICAO: SAZS  IATA: BRC   Airport: San Carlos de Bariloche Airport
City: Rio Negro
Country: Argentina   Continent: South America
SAZS METAR Weather: SAZS 011200Z 16009KT CAVOK M04/M09 Q1022
SAZS Flight Activity (FlightAware)
SAZS Tower/Approach
Feed Status: UP   Listeners: 0
Listen right in your browser - requires Flash (in browser, requires Flash)
Click here to listen with your own player (launches your MP3 player)
SAZS Tower/Approach Audio Archives
FacilityFrequency
Bariloche Twr/App119.100
Bariloche Twr/App (Aux)118.650
Comodoro Rivadavia Control125.500
Emergency121.500
Ezeiza South125.200


Feed courtesy of: Juan Jose Porta - Bariloche

NOTICE

Unauthorized use prohibited. See LiveATC.net Terms of Service


Find LiveATC Audio Streams


Airport/ARTCC Code

Frequency
(e.g., 124.400, 128.75)
Site-wide search

Browse LiveATC Feeds
LiveATC Coverage Map
Top 50 LiveATC Feeds
Bad Weather Areas

LiveATC FAQ
Offer a LiveATC Feed
Contact LiveATC.net
Press Inquiries

LiveATC on iPhone
LiveATC on Android

Windows Phone
Windows 8/10

LiveATC Mobile
(Mobile browser)

ATC Audio Archives
Interesting Recordings

LiveATC Forums


Home Page
About LiveATC.net
Make a Donation
LiveATC Store

Terms of Use
Privacy Policy

Canadian Air Freqs

AIRMETs/SIGMETs

FAA Airport Status
Nat'l Airspace Status
Arrival Demand Charts


Server Software By:
Icecast.org
Liquidsoap